Time,TemperatureF,DewpointF,PressureIn,WindDirection,WindDirectionDegrees,WindSpeedMPH,WindSpeedGustMPH,Humidity,HourlyPrecipIn,Conditions,Clouds,dailyrainin,SoftwareType,DateUTC
2013-01-12 00:01:00,40.8,39.0,29.82,ENE,66,9.0,16.0,94,0.00,,,0.00,weatherlink.com 1.10,2013-01-11 23:01:00,
2013-01-12 00:16:00,41.1,39.0,29.82,WSW,238,1.0,10.0,93,0.00,,,0.00,weatherlink.com 1.10,2013-01-11 23:16:00,
2013-01-12 00:32:00,41.5,39.0,29.83,SSW,213,4.0,12.0,90,0.00,,,0.00,weatherlink.com 1.10,2013-01-11 23:32:00,
2013-01-12 00:47:00,41.5,39.0,29.83,East,87,1.0,10.0,89,0.00,,,0.00,weatherlink.com 1.10,2013-01-11 23:47:00,
2013-01-12 01:02:00,41.5,38.0,29.84,SW,215,2.0,10.0,88,0.00,,,0.00,weatherlink.com 1.10,2013-01-12 00:02:00,
2013-01-12 01:17:00,41.5,38.0,29.84,WSW,238,1.0,9.0,88,0.00,,,0.00,weatherlink.com 1.10,2013-01-12 00:17:00,
2013-01-12 01:32:00,41.5,38.0,29.84,NNW,330,2.0,10.0,88,0.00,,,0.00,weatherlink.com 1.10,2013-01-12 00:32:00,
2013-01-12 01:47:00,41.2,38.0,29.85,NW,304,4.0,9.0,88,0.00,,,0.00,weatherlink.com 1.10,2013-01-12 00:47:00,
2013-01-12 02:02:00,41.0,38.0,29.86,NNW,330,4.0,11.0,89,0.00,,,0.00,weatherlink.com 1.10,2013-01-12 01:02:00,
2013-01-12 02:17:00,40.9,38.0,29.86,NW,319,9.0,11.0,90,0.00,,,0.00,weatherlink.com 1.10,2013-01-12 01:17:00,
2013-01-12 02:32:00,41.2,38.0,29.87,NNW,332,6.0,11.0,88,0.00,,,0.00,weatherlink.com 1.10,2013-01-12 01:32:00,
2013-01-12 02:47:00,41.7,38.0,29.88,North,359,6.0,12.0,87,0.00,,,0.00,weatherlink.com 1.10,2013-01-12 01:47:00,
2013-01-12 03:02:00,41.5,38.0,29.88,NW,325,7.0,13.0,87,0.00,,,0.00,weatherlink.com 1.10,2013-01-12 02:02:00,
2013-01-12 03:17:00,41.7,38.0,29.88,NW,309,4.0,12.0,86,0.00,,,0.00,weatherlink.com 1.10,2013-01-12 02:17:00,
2013-01-12 03:32:00,41.3,38.0,29.88,North,349,9.0,11.0,89,0.00,,,0.00,weatherlink.com 1.10,2013-01-12 02:32:00,
2013-01-12 03:47:00,41.1,38.0,29.88,NW,325,5.0,9.0,89,0.00,,,0.00,weatherlink.com 1.10,2013-01-12 02:47:00,
2013-01-12 04:02:00,41.4,38.0,29.88,NNE,15,4.0,7.0,86,0.00,,,0.00,weatherlink.com 1.10,2013-01-12 03:02:00,
2013-01-12 04:17:00,41.9,37.0,29.89,NNE,18,5.0,6.0,84,0.00,,,0.00,weatherlink.com 1.10,2013-01-12 03:17:00,
2013-01-12 04:32:00,42.1,36.0,29.89,NNE,26,4.0,5.0,80,0.00,,,0.00,weatherlink.com 1.10,2013-01-12 03:32:00,
2013-01-12 04:47:00,41.4,36.0,29.89,North,11,6.0,7.0,81,0.00,,,0.00,weatherlink.com 1.10,2013-01-12 03:47:00,
2013-01-12 05:02:00,41.3,36.0,29.90,NNE,20,5.0,6.0,81,0.00,,,0.00,weatherlink.com 1.10,2013-01-12 04:02:00,
2013-01-12 05:17:00,41.6,36.0,29.90,NNE,15,6.0,6.0,80,0.00,,,0.00,weatherlink.com 1.10,2013-01-12 04:17:00,
2013-01-12 05:32:00,41.4,36.0,29.91,NNE,19,1.0,6.0,80,0.00,,,0.00,weatherlink.com 1.10,2013-01-12 04:32:00,
2013-01-12 05:47:00,40.6,35.0,29.91,NNE,20,2.0,3.0,81,0.00,,,0.00,weatherlink.com 1.10,2013-01-12 04:47:00,
2013-01-12 06:17:00,42.8,36.0,29.92,NE,34,0.0,3.0,78,0.00,,,0.00,weatherlink.com 1.10,2013-01-12 05:17:00,
2013-01-12 06:32:00,42.4,36.0,29.92,NE,50,1.0,4.0,79,0.00,,,0.00,weatherlink.com 1.10,2013-01-12 05:32:00,
2013-01-12 06:47:00,42.6,37.0,29.93,ENE,65,4.0,4.0,79,0.00,,,0.00,weatherlink.com 1.10,2013-01-12 05:47:00,
2013-01-12 07:02:00,42.9,36.0,29.94,NE,43,2.0,2.0,78,0.00,,,0.00,weatherlink.com 1.10,2013-01-12 06:02:00,
2013-01-12 07:17:00,42.6,36.0,29.95,NE,41,1.0,2.0,78,0.00,,,0.00,weatherlink.com 1.10,2013-01-12 06:17:00,
2013-01-12 07:33:00,42.6,36.0,29.95,NE,49,0.0,2.0,78,0.00,,,0.00,weatherlink.com 1.10,2013-01-12 06:33:00,
2013-01-12 07:47:00,42.9,36.0,29.96,ENE,77,1.0,2.0,77,0.00,,,0.00,weatherlink.com 1.10,2013-01-12 06:47:00,
2013-01-12 08:03:00,42.6,37.0,29.96,NNE,33,2.0,3.0,80,0.00,,,0.00,weatherlink.com 1.10,2013-01-12 07:03:00,
2013-01-12 08:18:00,43.5,37.0,29.97,NE,50,2.0,5.0,79,0.00,,,0.00,weatherlink.com 1.10,2013-01-12 07:18:00,
2013-01-12 08:33:00,44.1,38.0,29.97,East,94,2.0,4.0,79,0.00,,,0.00,weatherlink.com 1.10,2013-01-12 07:33:00,
2013-01-12 08:48:00,44.8,38.0,29.98,East,101,1.0,3.0,78,0.00,,,0.00,weatherlink.com 1.10,2013-01-12 07:48:00,
2013-01-12 09:03:00,46.6,39.0,29.98,East,91,1.0,3.0,75,0.00,,,0.00,weatherlink.com 1.10,2013-01-12 08:03:00,
2013-01-12 09:18:00,47.8,40.0,29.98,SE,134,0.0,2.0,73,0.00,,,0.00,weatherlink.com 1.10,2013-01-12 08:18:00,
2013-01-12 09:33:00,47.8,40.0,29.99,SE,141,4.0,5.0,73,0.00,,,0.00,weatherlink.com 1.10,2013-01-12 08:33:00,
2013-01-12 09:49:00,47.9,41.0,29.99,SE,131,4.0,7.0,77,0.00,,,0.00,weatherlink.com 1.10,2013-01-12 08:49:00,
2013-01-12 10:03:00,47.8,42.0,30.00,ESE,106,1.0,6.0,79,0.00,,,0.00,weatherlink.com 1.10,2013-01-12 09:03:00,
2013-01-12 10:18:00,47.7,42.0,30.01,East,96,5.0,7.0,80,0.00,,,0.00,weatherlink.com 1.10,2013-01-12 09:18:00,
2013-01-12 10:33:00,47.7,42.0,30.00,SE,135,2.0,8.0,80,0.00,,,0.00,weatherlink.com 1.10,2013-01-12 09:33:00,
2013-01-12 10:48:00,48.4,42.0,30.01,South,188,2.0,7.0,78,0.00,,,0.00,weatherlink.com 1.10,2013-01-12 09:48:00,
2013-01-12 11:03:00,48.5,41.0,30.01,South,174,1.0,6.0,74,0.00,,,0.00,weatherlink.com 1.10,2013-01-12 10:03:00,
2013-01-12 11:18:00,48.6,40.0,30.01,South,184,3.0,9.0,73,0.00,,,0.00,weatherlink.com 1.10,2013-01-12 10:18:00,
2013-01-12 11:33:00,49.0,40.0,30.01,South,174,1.0,5.0,72,0.00,,,0.00,weatherlink.com 1.10,2013-01-12 10:33:00,
2013-01-12 11:48:00,49.8,41.0,30.00,SE,128,3.0,4.0,71,0.00,,,0.00,weatherlink.com 1.10,2013-01-12 10:48:00,
2013-01-12 12:03:00,49.4,41.0,30.01,SSE,160,2.0,6.0,73,0.00,,,0.00,weatherlink.com 1.10,2013-01-12 11:03:00,
2013-01-12 12:18:00,49.5,42.0,30.00,South,191,0.0,5.0,74,0.00,,,0.00,weatherlink.com 1.10,2013-01-12 11:18:00,
2013-01-12 12:33:00,50.3,42.0,29.99,South,181,7.0,11.0,73,0.00,,,0.00,weatherlink.com 1.10,2013-01-12 11:33:00,
2013-01-12 12:48:00,49.4,42.0,29.99,South,183,3.0,7.0,75,0.00,,,0.00,weatherlink.com 1.10,2013-01-12 11:48:00,
2013-01-12 13:03:00,50.1,42.0,29.99,SSE,149,5.0,11.0,75,0.00,,,0.00,weatherlink.com 1.10,2013-01-12 12:03:00,
2013-01-12 13:18:00,49.8,43.0,29.99,South,179,1.0,7.0,77,0.00,,,0.00,weatherlink.com 1.10,2013-01-12 12:18:00,
2013-01-12 13:33:00,49.3,43.0,29.99,SSE,166,2.0,6.0,78,0.00,,,0.00,weatherlink.com 1.10,2013-01-12 12:33:00,
2013-01-12 13:48:00,48.8,43.0,29.99,SSE,165,4.0,10.0,81,0.00,,,0.00,weatherlink.com 1.10,2013-01-12 12:48:00,
2013-01-12 14:03:00,48.3,43.0,29.99,South,174,6.0,10.0,83,0.00,,,0.00,weatherlink.com 1.10,2013-01-12 13:03:00,
2013-01-12 14:18:00,48.4,44.0,29.99,South,181,6.0,6.0,84,0.00,,,0.00,weatherlink.com 1.10,2013-01-12 13:18:00,
2013-01-12 14:33:00,48.2,44.0,29.99,South,169,7.0,8.0,85,0.00,,,0.00,weatherlink.com 1.10,2013-01-12 13:33:00,
2013-01-12 14:48:00,48.2,44.0,30.00,ESE,116,1.0,7.0,85,0.00,,,0.00,weatherlink.com 1.10,2013-01-12 13:48:00,
2013-01-12 15:03:00,48.1,44.0,30.00,SE,135,5.0,7.0,85,0.00,,,0.00,weatherlink.com 1.10,2013-01-12 14:03:00,
2013-01-12 15:18:00,47.9,44.0,30.00,ESE,122,5.0,6.0,86,0.00,,,0.00,weatherlink.com 1.10,2013-01-12 14:18:00,
2013-01-12 15:33:00,47.2,44.0,30.00,South,174,5.0,9.0,88,0.00,,,0.00,weatherlink.com 1.10,2013-01-12 14:33:00,
2013-01-12 15:48:00,47.0,44.0,30.00,East,97,3.0,8.0,89,0.00,,,0.00,weatherlink.com 1.10,2013-01-12 14:48:00,
2013-01-12 16:03:00,47.0,44.0,30.00,SSE,148,6.0,8.0,90,0.00,,,0.00,weatherlink.com 1.10,2013-01-12 15:03:00,
2013-01-12 16:18:00,46.9,44.0,30.00,SE,128,7.0,7.0,90,0.00,,,0.00,weatherlink.com 1.10,2013-01-12 15:18:00,
2013-01-12 16:33:00,46.8,44.0,30.00,NE,54,2.0,8.0,90,0.00,,,0.00,weatherlink.com 1.10,2013-01-12 15:33:00,
2013-01-12 16:48:00,46.7,44.0,30.01,ESE,122,3.0,11.0,90,0.00,,,0.00,weatherlink.com 1.10,2013-01-12 15:48:00,
2013-01-12 17:03:00,46.6,44.0,30.01,SSE,159,3.0,13.0,91,0.00,,,0.00,weatherlink.com 1.10,2013-01-12 16:03:00,
2013-01-12 17:18:00,46.5,44.0,30.01,SE,143,4.0,10.0,90,0.00,,,0.00,weatherlink.com 1.10,2013-01-12 16:18:00,
2013-01-12 17:33:00,46.4,43.0,30.01,SE,139,7.0,10.0,88,0.00,,,0.00,weatherlink.com 1.10,2013-01-12 16:33:00,
2013-01-12 17:48:00,46.3,43.0,30.01,SSW,198,6.0,13.0,87,0.00,,,0.00,weatherlink.com 1.10,2013-01-12 16:48:00,
2013-01-12 18:03:00,46.3,42.0,30.02,SSE,150,8.0,11.0,86,0.00,,,0.00,weatherlink.com 1.10,2013-01-12 17:03:00,
2013-01-12 18:18:00,46.5,42.0,30.01,SSW,194,4.0,11.0,83,0.00,,,0.00,weatherlink.com 1.10,2013-01-12 17:18:00,
2013-01-12 18:33:00,46.3,41.0,30.01,SSE,159,4.0,11.0,82,0.00,,,0.00,weatherlink.com 1.10,2013-01-12 17:33:00,
2013-01-12 18:48:00,46.3,41.0,30.01,SE,134,8.0,13.0,81,0.00,,,0.00,weatherlink.com 1.10,2013-01-12 17:48:00,
2013-01-12 19:03:00,45.9,41.0,30.01,SSE,155,2.0,12.0,82,0.00,,,0.00,weatherlink.com 1.10,2013-01-12 18:03:00,
2013-01-12 19:18:00,45.3,41.0,30.02,ENE,75,3.0,9.0,84,0.00,,,0.00,weatherlink.com 1.10,2013-01-12 18:18:00,
2013-01-12 19:33:00,45.0,41.0,30.02,SE,136,2.0,7.0,85,0.00,,,0.00,weatherlink.com 1.10,2013-01-12 18:33:00,
2013-01-12 19:48:00,45.1,41.0,30.02,SE,128,4.0,9.0,85,0.00,,,0.00,weatherlink.com 1.10,2013-01-12 18:48:00,
2013-01-12 20:03:00,45.9,41.0,30.02,SSE,151,5.0,10.0,83,0.00,,,0.00,weatherlink.com 1.10,2013-01-12 19:03:00,
2013-01-12 20:18:00,46.1,41.0,30.02,SSE,165,2.0,8.0,82,0.00,,,0.00,weatherlink.com 1.10,2013-01-12 19:18:00,
2013-01-12 20:34:00,46.1,41.0,30.02,SE,127,1.0,8.0,81,0.00,,,0.00,weatherlink.com 1.10,2013-01-12 19:34:00,
2013-01-12 20:49:00,46.3,41.0,30.02,SE,141,3.0,8.0,81,0.00,,,0.00,weatherlink.com 1.10,2013-01-12 19:49:00,
2013-01-12 21:04:00,46.5,41.0,30.03,SE,136,7.0,10.0,81,0.00,,,0.00,weatherlink.com 1.10,2013-01-12 20:04:00,
2013-01-12 21:19:00,46.6,41.0,30.03,SSE,156,2.0,9.0,81,0.00,,,0.00,weatherlink.com 1.10,2013-01-12 20:19:00,
2013-01-12 21:34:00,46.3,41.0,30.03,South,185,2.0,8.0,82,0.00,,,0.00,weatherlink.com 1.10,2013-01-12 20:34:00,
2013-01-12 21:49:00,46.3,41.0,30.03,South,188,4.0,10.0,83,0.00,,,0.00,weatherlink.com 1.10,2013-01-12 20:49:00,
2013-01-12 22:04:00,46.3,42.0,30.04,South,176,3.0,8.0,84,0.00,,,0.00,weatherlink.com 1.10,2013-01-12 21:04:00,
2013-01-12 22:19:00,46.7,42.0,30.04,South,188,6.0,9.0,84,0.00,,,0.00,weatherlink.com 1.10,2013-01-12 21:19:00,
2013-01-12 22:34:00,46.5,42.0,30.04,SSE,148,3.0,9.0,84,0.00,,,0.00,weatherlink.com 1.10,2013-01-12 21:34:00,
2013-01-12 22:49:00,46.5,42.0,30.04,SSW,211,4.0,7.0,84,0.00,,,0.00,weatherlink.com 1.10,2013-01-12 21:49:00,
2013-01-12 23:04:00,46.3,42.0,30.04,ESE,103,2.0,7.0,85,0.00,,,0.00,weatherlink.com 1.10,2013-01-12 22:04:00,
2013-01-12 23:19:00,46.3,42.0,30.03,SSE,158,0.0,4.0,86,0.00,,,0.00,weatherlink.com 1.10,2013-01-12 22:19:00,
2013-01-12 23:34:00,46.7,43.0,30.03,SE,127,1.0,6.0,86,0.00,,,0.00,weatherlink.com 1.10,2013-01-12 22:34:00,
2013-01-12 23:49:00,46.7,43.0,30.03,South,191,1.0,7.0,86,0.00,,,0.00,weatherlink.com 1.10,2013-01-12 22:49:00,